createdAt,value
2022-10-31T00:00:43.008Z,2.10
2022-10-31T00:01:42.982Z,2.00
2022-10-31T00:02:43.054Z,2.10
2022-10-31T00:03:42.994Z,2.10
2022-10-31T00:04:42.938Z,2.00
2022-10-31T00:05:42.907Z,2.10
2022-10-31T00:06:42.947Z,2.40
2022-10-31T00:07:42.900Z,2.10
2022-10-31T00:08:42.881Z,2.20
2022-10-31T00:09:42.940Z,2.20
2022-10-31T00:10:42.890Z,2.00
2022-10-31T00:11:42.851Z,2.10
2022-10-31T00:12:42.885Z,1.70
2022-10-31T00:13:42.837Z,2.00
2022-10-31T00:14:42.912Z,2.10
2022-10-31T00:15:42.872Z,1.60
2022-10-31T00:16:42.809Z,1.80
2022-10-31T00:17:42.782Z,2.20
2022-10-31T00:18:42.862Z,1.80
2022-10-31T00:19:42.797Z,1.80
2022-10-31T00:20:42.782Z,1.90
2022-10-31T00:21:42.802Z,1.70
2022-10-31T00:22:42.760Z,1.70
2022-10-31T00:23:42.882Z,1.70
2022-10-31T00:24:42.930Z,2.10
2022-10-31T00:25:44.060Z,2.00
2022-10-31T00:26:42.706Z,1.80
2022-10-31T00:27:42.689Z,1.80
2022-10-31T00:28:42.700Z,1.60
2022-10-31T00:29:42.712Z,1.80
2022-10-31T00:30:42.932Z,2.00
2022-10-31T00:31:42.655Z,1.80
2022-10-31T00:32:42.644Z,2.00
2022-10-31T00:33:42.662Z,2.50
2022-10-31T00:34:42.936Z,2.30
2022-10-31T00:35:42.686Z,1.80
2022-10-31T00:36:42.644Z,1.90
2022-10-31T00:37:42.601Z,1.70
2022-10-31T00:38:42.626Z,2.00
2022-10-31T00:39:42.637Z,2.00
2022-10-31T00:40:42.568Z,1.90
2022-10-31T00:41:42.602Z,1.70
2022-10-31T00:42:42.616Z,1.60
2022-10-31T00:43:42.566Z,1.60
2022-10-31T00:44:42.562Z,1.70
2022-10-31T00:45:42.579Z,1.90
2022-10-31T00:46:42.552Z,1.50
2022-10-31T00:47:42.492Z,1.60
2022-10-31T00:48:42.533Z,1.80
2022-10-31T00:49:42.473Z,1.90
2022-10-31T00:50:42.506Z,2.00
2022-10-31T00:51:42.450Z,1.90
2022-10-31T00:52:42.439Z,2.10
2022-10-31T00:53:42.467Z,1.70
2022-10-31T00:54:42.472Z,1.90
2022-10-31T00:55:42.417Z,1.60
2022-10-31T00:56:42.529Z,1.70
2022-10-31T00:57:42.454Z,1.80
2022-10-31T00:58:42.486Z,2.10
2022-10-31T00:59:42.369Z,1.60
2022-10-31T01:00:43.693Z,1.70
2022-10-31T01:01:42.508Z,1.80
2022-10-31T01:02:42.516Z,1.90
2022-10-31T01:03:42.396Z,1.80
2022-10-31T01:04:42.429Z,1.90
2022-10-31T01:05:42.308Z,1.70
2022-10-31T01:06:42.323Z,1.90
2022-10-31T01:07:42.309Z,1.80
2022-10-31T01:08:42.356Z,1.70
2022-10-31T01:09:42.328Z,2.20
2022-10-31T01:10:42.338Z,2.00
2022-10-31T01:11:42.276Z,1.70
2022-10-31T01:12:42.295Z,1.80
2022-10-31T01:13:42.249Z,1.70
2022-10-31T01:14:42.326Z,2.10
2022-10-31T01:15:42.213Z,2.50
2022-10-31T01:16:42.326Z,2.20
2022-10-31T01:17:42.428Z,1.70
2022-10-31T01:18:42.323Z,1.60
2022-10-31T01:19:42.183Z,1.70
2022-10-31T01:20:42.171Z,2.00
2022-10-31T01:21:42.149Z,1.70
2022-10-31T01:22:42.185Z,2.10
2022-10-31T01:23:42.132Z,2.00
2022-10-31T01:24:42.189Z,1.80
2022-10-31T01:25:42.196Z,1.90
2022-10-31T01:26:42.140Z,1.80
2022-10-31T01:27:42.089Z,2.10
2022-10-31T01:28:42.090Z,1.70
2022-10-31T01:29:42.075Z,1.60
2022-10-31T01:30:42.106Z,1.60
2022-10-31T01:31:42.115Z,1.80
2022-10-31T01:32:42.114Z,1.80
2022-10-31T01:33:42.061Z,1.90
2022-10-31T01:34:42.372Z,1.80
2022-10-31T01:35:42.011Z,1.90
2022-10-31T01:36:42.071Z,1.30
2022-10-31T01:37:42.034Z,1.50
2022-10-31T01:38:41.986Z,1.50
2022-10-31T01:39:41.974Z,1.60
2022-10-31T01:40:42.027Z,1.60
2022-10-31T01:41:42.068Z,1.70
2022-10-31T01:42:42.001Z,1.50
2022-10-31T01:43:41.945Z,1.80
2022-10-31T01:44:41.956Z,1.80
2022-10-31T01:45:41.915Z,2.00
2022-10-31T01:46:41.908Z,1.70
2022-10-31T01:47:42.013Z,1.80
2022-10-31T01:48:43.330Z,1.50
2022-10-31T01:49:41.888Z,1.80
2022-10-31T01:50:41.881Z,1.90
2022-10-31T01:51:41.864Z,1.80
2022-10-31T01:52:41.896Z,1.60
2022-10-31T01:53:41.861Z,1.70
2022-10-31T01:54:41.872Z,1.60
2022-10-31T01:55:41.862Z,1.70
2022-10-31T01:56:41.827Z,1.80
2022-10-31T01:57:41.876Z,1.80
2022-10-31T01:58:41.783Z,1.90
2022-10-31T01:59:41.784Z,1.70
2022-10-31T02:00:42.001Z,2.00
2022-10-31T02:01:42.051Z,1.60
2022-10-31T02:02:42.066Z,1.70
2022-10-31T02:03:41.758Z,1.40
2022-10-31T02:04:41.749Z,1.50
2022-10-31T02:05:41.724Z,1.90
2022-10-31T02:06:41.869Z,1.60
2022-10-31T02:07:41.741Z,1.30
2022-10-31T02:08:41.804Z,1.70
2022-10-31T02:09:41.720Z,1.70
2022-10-31T02:10:41.665Z,1.80
2022-10-31T02:11:41.705Z,1.70
2022-10-31T02:12:41.705Z,1.50
2022-10-31T02:13:41.692Z,1.60
2022-10-31T02:14:41.634Z,1.70
2022-10-31T02:15:41.624Z,1.60
2022-10-31T02:16:41.599Z,1.80
2022-10-31T02:17:41.753Z,1.60
2022-10-31T02:18:41.613Z,1.60
2022-10-31T02:19:41.613Z,1.60
2022-10-31T02:20:41.605Z,1.50
2022-10-31T02:21:41.557Z,1.90
2022-10-31T02:22:41.586Z,2.10
2022-10-31T02:23:42.993Z,1.90
2022-10-31T02:24:41.528Z,1.90
2022-10-31T02:25:41.567Z,1.80
2022-10-31T02:26:41.590Z,1.90
2022-10-31T02:27:41.498Z,1.60
2022-10-31T02:28:41.547Z,1.80
2022-10-31T02:29:41.498Z,1.70
2022-10-31T02:30:41.476Z,2.00
2022-10-31T02:31:41.537Z,1.70
2022-10-31T02:32:41.452Z,1.50
2022-10-31T02:33:41.634Z,1.50
2022-10-31T02:34:41.426Z,1.70
2022-10-31T02:35:41.425Z,1.50
2022-10-31T02:36:41.451Z,1.60
2022-10-31T02:37:41.416Z,1.60
2022-10-31T02:38:41.452Z,2.00
2022-10-31T02:39:41.426Z,1.80
2022-10-31T02:40:41.475Z,2.00
2022-10-31T02:41:41.369Z,2.30
2022-10-31T02:42:41.345Z,1.80
2022-10-31T02:43:41.342Z,1.70
2022-10-31T02:44:41.432Z,1.80
2022-10-31T02:45:41.380Z,1.60
2022-10-31T02:46:41.387Z,2.10
2022-10-31T02:47:41.298Z,1.80
2022-10-31T02:48:41.350Z,1.60
2022-10-31T02:49:41.314Z,1.30
2022-10-31T02:50:41.330Z,1.50
2022-10-31T02:51:41.283Z,1.50
2022-10-31T02:52:41.463Z,1.40
2022-10-31T02:53:41.314Z,1.70
2022-10-31T02:54:41.251Z,1.30
2022-10-31T02:55:41.287Z,1.50
2022-10-31T02:56:41.210Z,1.80
2022-10-31T02:57:41.206Z,1.50
2022-10-31T02:58:41.224Z,1.70
2022-10-31T02:59:41.180Z,1.60
2022-10-31T03:00:41.224Z,1.40
2022-10-31T03:01:41.314Z,1.40
2022-10-31T03:02:41.347Z,1.60
2022-10-31T03:03:41.151Z,1.60
2022-10-31T03:04:41.139Z,1.90
2022-10-31T03:05:41.168Z,2.60
2022-10-31T03:06:41.114Z,1.90
2022-10-31T03:07:41.159Z,1.70
2022-10-31T03:08:41.153Z,2.00
2022-10-31T03:09:41.098Z,2.80
2022-10-31T03:10:41.069Z,3.70
2022-10-31T03:11:41.143Z,4.30
2022-10-31T03:12:44.494Z,3.80
2022-10-31T03:13:41.076Z,3.20
2022-10-31T03:14:41.085Z,3.90
2022-10-31T03:15:41.048Z,3.70
2022-10-31T03:16:41.018Z,4.40
2022-10-31T03:17:41.031Z,3.60
2022-10-31T03:18:41.079Z,3.50
2022-10-31T03:19:40.979Z,2.00
2022-10-31T03:20:40.999Z,1.70
2022-10-31T03:21:40.983Z,1.70
2022-10-31T03:22:40.962Z,1.80
2022-10-31T03:23:41.008Z,1.40
2022-10-31T03:24:40.986Z,1.50
2022-10-31T03:25:40.925Z,2.00
2022-10-31T03:26:40.980Z,1.80
2022-10-31T03:27:40.905Z,1.90
2022-10-31T03:28:40.945Z,1.40
2022-10-31T03:29:40.914Z,1.90
2022-10-31T03:30:40.879Z,2.10
2022-10-31T03:31:41.042Z,2.60
2022-10-31T03:32:40.899Z,2.30
2022-10-31T03:33:40.843Z,2.30
2022-10-31T03:34:40.836Z,1.70
2022-10-31T03:35:40.890Z,1.50
2022-10-31T03:36:40.872Z,1.90
2022-10-31T03:37:40.901Z,2.10
2022-10-31T03:38:40.801Z,1.60
2022-10-31T03:39:40.836Z,1.60
2022-10-31T03:40:40.776Z,1.60
2022-10-31T03:41:40.846Z,1.80
2022-10-31T03:42:40.808Z,2.10
2022-10-31T03:43:40.839Z,1.80
2022-10-31T03:44:40.737Z,1.80
2022-10-31T03:45:40.998Z,8.90
2022-10-31T03:46:40.717Z,4.40
2022-10-31T03:47:40.702Z,3.80
2022-10-31T03:48:40.711Z,2.80
2022-10-31T03:49:40.714Z,2.50
2022-10-31T03:50:40.685Z,2.70
2022-10-31T03:51:40.733Z,5.20
2022-10-31T03:52:40.655Z,5.60
2022-10-31T03:53:40.644Z,3.50
2022-10-31T03:54:40.687Z,3.80
2022-10-31T03:55:40.629Z,3.70
2022-10-31T03:56:40.657Z,2.70
2022-10-31T03:57:40.605Z,2.20
2022-10-31T03:58:40.699Z,2.00
2022-10-31T03:59:40.591Z,2.00
2022-10-31T04:00:40.580Z,2.20
2022-10-31T04:01:40.871Z,1.90
2022-10-31T04:02:40.740Z,1.70
2022-10-31T04:03:40.609Z,1.90
2022-10-31T04:04:40.657Z,2.00
2022-10-31T04:05:40.589Z,1.80
2022-10-31T04:06:40.515Z,1.70
2022-10-31T04:07:40.675Z,1.90
2022-10-31T04:08:40.568Z,2.40
2022-10-31T04:09:40.513Z,1.70
2022-10-31T04:10:40.541Z,1.50
2022-10-31T04:11:40.462Z,1.70
2022-10-31T04:12:40.457Z,1.60
2022-10-31T04:13:40.526Z,1.50
2022-10-31T04:14:40.437Z,1.50
2022-10-31T04:15:40.445Z,1.60
2022-10-31T04:16:40.412Z,1.70
2022-10-31T04:17:40.420Z,1.60
2022-10-31T04:18:40.451Z,1.90
2022-10-31T04:19:40.433Z,1.30
2022-10-31T04:20:40.417Z,1.60
2022-10-31T04:21:40.504Z,1.90
2022-10-31T04:22:40.449Z,1.70
2022-10-31T04:23:40.351Z,1.50
2022-10-31T04:24:40.391Z,1.50
2022-10-31T04:25:40.355Z,1.80
2022-10-31T04:26:40.325Z,1.40
2022-10-31T04:27:40.304Z,1.60
2022-10-31T04:28:40.291Z,1.80
2022-10-31T04:29:40.344Z,1.60
2022-10-31T04:30:40.324Z,1.60
2022-10-31T04:31:40.288Z,1.60
2022-10-31T04:32:40.312Z,2.20
2022-10-31T04:33:40.260Z,2.10
2022-10-31T04:34:40.246Z,1.90
2022-10-31T04:35:40.241Z,1.90
2022-10-31T04:36:40.267Z,2.00
2022-10-31T04:37:40.224Z,1.60
2022-10-31T04:38:40.255Z,1.60
2022-10-31T04:39:40.298Z,1.60
2022-10-31T04:40:40.198Z,1.50
2022-10-31T04:41:40.198Z,1.40
2022-10-31T04:42:40.201Z,1.40
2022-10-31T04:43:40.196Z,1.40
2022-10-31T04:44:40.180Z,1.30
2022-10-31T04:45:40.229Z,1.30
2022-10-31T04:46:40.158Z,1.40
2022-10-31T04:47:40.111Z,1.50
2022-10-31T04:48:40.100Z,1.50
2022-10-31T04:49:40.148Z,1.30
2022-10-31T04:50:40.173Z,1.70
2022-10-31T04:51:40.079Z,1.30
2022-10-31T04:52:40.066Z,1.30
2022-10-31T04:53:40.046Z,1.60
2022-10-31T04:54:40.188Z,1.50
2022-10-31T04:55:40.087Z,1.50
2022-10-31T04:56:40.066Z,1.40
2022-10-31T04:57:40.036Z,1.50
2022-10-31T04:58:40.007Z,1.30
2022-10-31T04:59:40.043Z,1.80
2022-10-31T05:00:39.986Z,1.50
2022-10-31T05:01:40.067Z,1.40
2022-10-31T05:02:42.133Z,1.70
2022-10-31T05:03:39.964Z,1.80
2022-10-31T05:04:40.051Z,1.80
2022-10-31T05:05:39.957Z,1.50
2022-10-31T05:06:39.946Z,1.80
2022-10-31T05:07:39.973Z,1.60
2022-10-31T05:08:39.951Z,1.40
2022-10-31T05:09:39.897Z,1.50
2022-10-31T05:10:39.888Z,1.60
2022-10-31T05:11:39.894Z,1.60
2022-10-31T05:12:39.864Z,1.60
2022-10-31T05:13:39.910Z,2.00
2022-10-31T05:14:41.450Z,1.50
2022-10-31T05:15:39.891Z,1.20
2022-10-31T05:16:39.850Z,1.70
2022-10-31T05:17:39.864Z,1.70
2022-10-31T05:18:39.903Z,1.40
2022-10-31T05:19:39.808Z,1.60
2022-10-31T05:20:39.828Z,1.70
2022-10-31T05:21:39.769Z,1.60
2022-10-31T05:22:39.772Z,1.90
2022-10-31T05:23:44.384Z,1.40
2022-10-31T05:24:39.744Z,1.50
2022-10-31T05:25:39.768Z,1.50
2022-10-31T05:26:39.747Z,1.30
2022-10-31T05:27:39.726Z,1.40
2022-10-31T05:28:39.680Z,1.60
2022-10-31T05:29:39.693Z,1.80
2022-10-31T05:30:39.724Z,1.40
2022-10-31T05:31:39.690Z,1.40
2022-10-31T05:32:39.637Z,1.80
2022-10-31T05:33:39.708Z,1.80
2022-10-31T05:34:39.707Z,1.50
2022-10-31T05:35:39.619Z,1.60
2022-10-31T05:36:39.582Z,1.50
2022-10-31T05:37:39.586Z,1.30
2022-10-31T05:38:39.550Z,1.50
2022-10-31T05:39:39.594Z,1.40
2022-10-31T05:40:39.635Z,1.30
2022-10-31T05:41:39.516Z,1.40
2022-10-31T05:42:39.586Z,1.40
2022-10-31T05:43:39.566Z,1.70
2022-10-31T05:44:39.508Z,1.30
2022-10-31T05:45:39.476Z,1.90
2022-10-31T05:46:39.551Z,1.60
2022-10-31T05:47:39.488Z,1.50
2022-10-31T05:48:39.458Z,1.40
2022-10-31T05:49:39.488Z,1.60
2022-10-31T05:50:39.468Z,1.20
2022-10-31T05:51:39.439Z,1.80
2022-10-31T05:52:39.419Z,1.40
2022-10-31T05:53:39.507Z,1.90
2022-10-31T05:54:39.436Z,1.60
2022-10-31T05:55:39.380Z,1.50
2022-10-31T05:56:39.402Z,1.60
2022-10-31T05:57:39.419Z,1.30
2022-10-31T05:58:39.360Z,1.40
2022-10-31T05:59:39.358Z,1.50
2022-10-31T06:00:39.339Z,1.40
2022-10-31T06:01:39.452Z,1.70
2022-10-31T06:02:39.317Z,1.60
2022-10-31T06:03:39.412Z,1.80
2022-10-31T06:04:39.352Z,1.70
2022-10-31T06:05:39.348Z,1.40
2022-10-31T06:06:39.402Z,1.30
2022-10-31T06:07:39.278Z,1.50
2022-10-31T06:08:39.265Z,1.80
2022-10-31T06:09:39.238Z,1.70
2022-10-31T06:10:39.250Z,1.30
2022-10-31T06:11:39.237Z,1.60
2022-10-31T06:12:39.266Z,1.50
2022-10-31T06:13:39.194Z,1.40
2022-10-31T06:14:39.236Z,1.50
2022-10-31T06:15:39.233Z,1.70
2022-10-31T06:16:39.241Z,1.90
2022-10-31T06:17:39.176Z,1.50
2022-10-31T06:18:39.305Z,1.50
2022-10-31T06:19:39.197Z,1.30
2022-10-31T06:20:39.136Z,1.50
2022-10-31T06:21:39.206Z,1.40
2022-10-31T06:22:39.113Z,1.60
2022-10-31T06:23:39.190Z,1.60
2022-10-31T06:24:39.103Z,1.40
2022-10-31T06:25:39.093Z,1.70
2022-10-31T06:26:39.142Z,1.80
2022-10-31T06:27:39.104Z,1.60
2022-10-31T06:28:39.053Z,1.50
2022-10-31T06:29:39.082Z,1.20
2022-10-31T06:30:39.035Z,1.80
2022-10-31T06:31:39.023Z,1.70
2022-10-31T06:32:39.139Z,1.50
2022-10-31T06:33:39.058Z,1.80
2022-10-31T06:34:38.989Z,1.60
2022-10-31T06:35:38.988Z,1.40
2022-10-31T06:36:38.978Z,1.80
2022-10-31T06:37:39.431Z,1.50
2022-10-31T06:38:38.960Z,1.50
2022-10-31T06:39:38.938Z,1.50
2022-10-31T06:40:38.945Z,1.60
2022-10-31T06:41:38.932Z,1.80
2022-10-31T06:42:39.040Z,1.80
2022-10-31T06:43:39.070Z,1.70
2022-10-31T06:44:38.953Z,2.10
2022-10-31T06:45:38.879Z,1.70
2022-10-31T06:46:38.938Z,2.00
2022-10-31T06:47:56.766Z,3.30
2022-10-31T06:48:38.902Z,3.10
2022-10-31T06:49:38.932Z,4.90
2022-10-31T06:50:38.890Z,7.50
2022-10-31T06:51:38.832Z,6.00
2022-10-31T06:52:38.915Z,3.70
2022-10-31T06:53:38.897Z,3.50
2022-10-31T06:54:38.820Z,3.80
2022-10-31T06:55:39.005Z,2.60
2022-10-31T06:56:38.775Z,3.30
2022-10-31T06:57:38.801Z,2.50
2022-10-31T06:58:38.863Z,2.50
2022-10-31T06:59:38.747Z,2.80
2022-10-31T07:00:38.870Z,2.40
2022-10-31T07:01:38.848Z,2.20
2022-10-31T07:02:38.821Z,2.30
2022-10-31T07:03:38.707Z,2.10
2022-10-31T07:04:38.695Z,2.60
2022-10-31T07:05:38.743Z,2.30
2022-10-31T07:06:38.703Z,2.20
2022-10-31T07:07:38.713Z,2.40
2022-10-31T07:08:38.731Z,2.20
2022-10-31T07:09:38.780Z,2.50
2022-10-31T07:10:40.513Z,2.40
2022-10-31T07:11:38.659Z,2.70
2022-10-31T07:12:38.669Z,2.60
2022-10-31T07:13:38.647Z,2.40
2022-10-31T07:14:38.594Z,3.00
2022-10-31T07:15:38.580Z,2.40
2022-10-31T07:16:38.661Z,2.00
2022-10-31T07:17:38.642Z,2.60
2022-10-31T07:18:38.618Z,2.50
2022-10-31T07:19:38.602Z,2.20
2022-10-31T07:20:38.539Z,2.30
2022-10-31T07:21:38.574Z,2.30
2022-10-31T07:22:38.530Z,2.30
2022-10-31T07:23:38.663Z,2.40
2022-10-31T07:24:38.490Z,2.50
2022-10-31T07:25:38.486Z,2.90
2022-10-31T07:26:38.485Z,2.50
2022-10-31T07:27:41.695Z,3.10
2022-10-31T07:28:38.565Z,3.10
2022-10-31T07:29:38.444Z,3.20
2022-10-31T07:30:38.499Z,3.40
2022-10-31T07:31:38.433Z,3.70
2022-10-31T07:32:38.438Z,3.60
2022-10-31T07:33:38.469Z,3.40
2022-10-31T07:34:41.227Z,3.00
2022-10-31T07:35:38.437Z,3.20
2022-10-31T07:36:38.398Z,2.20
2022-10-31T07:37:38.378Z,3.10
2022-10-31T07:38:38.426Z,2.80
2022-10-31T07:39:39.074Z,2.60
2022-10-31T07:40:38.392Z,2.40
2022-10-31T07:41:38.390Z,2.80
2022-10-31T07:42:38.439Z,2.70
2022-10-31T07:43:38.420Z,2.20
2022-10-31T07:44:38.322Z,3.30
2022-10-31T07:45:38.330Z,2.70
2022-10-31T07:46:38.275Z,3.90
2022-10-31T07:47:38.308Z,3.60
2022-10-31T07:48:38.378Z,3.00
2022-10-31T07:49:38.300Z,2.70
2022-10-31T07:50:38.244Z,2.50
2022-10-31T07:51:38.982Z,2.00
2022-10-31T07:52:38.216Z,1.80
2022-10-31T07:53:38.284Z,2.00
2022-10-31T07:54:38.217Z,1.70
2022-10-31T07:55:38.263Z,1.70
2022-10-31T07:56:38.191Z,2.10
2022-10-31T07:57:38.212Z,2.30
2022-10-31T07:58:38.158Z,1.70
2022-10-31T07:59:38.142Z,2.20
2022-10-31T08:00:38.330Z,1.90
2022-10-31T08:01:38.199Z,2.00
2022-10-31T08:02:38.114Z,2.30
2022-10-31T08:03:38.118Z,2.10
2022-10-31T08:04:38.212Z,1.80
2022-10-31T08:05:38.248Z,2.20
2022-10-31T08:06:38.123Z,1.90
2022-10-31T08:07:38.206Z,2.50
2022-10-31T08:08:38.535Z,1.60
2022-10-31T08:09:38.120Z,2.10
2022-10-31T08:10:38.081Z,2.00
2022-10-31T08:11:38.040Z,2.10
2022-10-31T08:12:38.014Z,1.90
2022-10-31T08:13:38.111Z,2.10
2022-10-31T08:14:38.008Z,2.30
2022-10-31T08:15:37.980Z,1.70
2022-10-31T08:16:38.094Z,2.10
2022-10-31T08:17:37.976Z,2.30
2022-10-31T08:18:38.012Z,1.60
2022-10-31T08:19:37.955Z,2.00
2022-10-31T08:20:37.951Z,2.10
2022-10-31T08:21:38.016Z,2.20
2022-10-31T08:22:42.908Z,2.50
2022-10-31T08:23:39.108Z,2.20
2022-10-31T08:25:38.868Z,2.10
2022-10-31T08:26:37.894Z,2.10
2022-10-31T08:27:38.085Z,1.90
2022-10-31T08:28:37.870Z,1.70
2022-10-31T08:29:37.920Z,1.90
2022-10-31T08:30:37.934Z,2.30
2022-10-31T08:31:41.839Z,2.60
2022-10-31T08:32:37.892Z,2.10
2022-10-31T08:33:37.830Z,1.80
2022-10-31T08:34:37.792Z,2.60
2022-10-31T08:35:37.902Z,2.40
2022-10-31T08:36:37.765Z,2.30
2022-10-31T08:37:38.087Z,2.30
2022-10-31T08:38:37.833Z,2.30
2022-10-31T08:39:37.738Z,2.30
2022-10-31T08:40:37.727Z,2.00
2022-10-31T08:41:37.783Z,2.50
2022-10-31T08:42:37.716Z,2.40
2022-10-31T08:43:37.755Z,2.60
2022-10-31T08:44:37.690Z,2.20
2022-10-31T08:45:37.938Z,2.70
2022-10-31T08:46:41.505Z,2.30
2022-10-31T08:47:43.981Z,2.10
2022-10-31T08:48:39.131Z,2.00
2022-10-31T08:49:41.990Z,2.20
2022-10-31T08:50:37.635Z,1.90
2022-10-31T08:51:37.931Z,2.00
2022-10-31T08:53:03.156Z,1.90
2022-10-31T08:53:38.379Z,2.20
2022-10-31T08:54:38.008Z,2.00
2022-10-31T08:55:41.306Z,2.00
2022-10-31T08:56:37.926Z,2.20
2022-10-31T08:57:39.091Z,2.20
2022-10-31T08:58:40.406Z,2.10
2022-10-31T08:59:37.649Z,2.00
2022-10-31T09:00:38.005Z,2.30
2022-10-31T09:01:37.914Z,2.20
2022-10-31T09:02:38.823Z,1.90
2022-10-31T09:03:39.598Z,1.90
2022-10-31T09:04:40.282Z,2.00
2022-10-31T09:05:39.054Z,2.00
2022-10-31T09:06:50.412Z,2.40
2022-10-31T09:07:37.783Z,2.10
2022-10-31T09:08:40.226Z,2.20
2022-10-31T09:09:37.537Z,2.20
2022-10-31T09:10:38.882Z,2.20
2022-10-31T09:11:39.179Z,2.60
2022-10-31T09:12:38.576Z,2.50
2022-10-31T09:13:41.503Z,1.90
2022-10-31T09:14:37.501Z,2.20
2022-10-31T09:15:37.503Z,2.00
2022-10-31T09:16:37.422Z,2.20
2022-10-31T09:17:37.604Z,2.20
2022-10-31T09:18:37.836Z,2.20
2022-10-31T09:19:39.094Z,2.10
2022-10-31T09:20:39.878Z,1.90
2022-10-31T09:21:37.353Z,2.10
2022-10-31T09:22:37.652Z,2.20
2022-10-31T09:23:39.577Z,2.10
2022-10-31T09:24:37.443Z,2.50
2022-10-31T09:25:38.779Z,2.60
2022-10-31T09:26:37.473Z,2.10
2022-10-31T09:27:37.677Z,2.30
2022-10-31T09:28:38.431Z,2.40
2022-10-31T09:29:37.459Z,2.20
2022-10-31T09:30:37.790Z,2.80
2022-10-31T09:31:43.737Z,2.50
2022-10-31T09:32:37.490Z,2.10
2022-10-31T09:33:38.142Z,2.20
2022-10-31T09:34:37.972Z,2.20
2022-10-31T09:35:37.306Z,2.60
2022-10-31T09:36:38.616Z,2.60
2022-10-31T09:37:37.266Z,2.30
2022-10-31T09:38:37.583Z,2.10
2022-10-31T09:39:37.150Z,2.50
2022-10-31T09:40:37.337Z,2.20
2022-10-31T09:41:37.123Z,2.50
2022-10-31T09:42:37.195Z,2.50
2022-10-31T09:43:38.411Z,2.70
2022-10-31T09:44:37.175Z,2.90
2022-10-31T09:45:39.012Z,2.70
2022-10-31T09:46:37.158Z,2.40
2022-10-31T09:47:37.113Z,2.40
2022-10-31T09:48:37.183Z,2.60
2022-10-31T09:49:38.496Z,2.60
2022-10-31T09:50:37.108Z,2.60
2022-10-31T09:51:37.310Z,2.80
2022-10-31T09:52:37.354Z,2.70
2022-10-31T09:53:37.121Z,2.60
2022-10-31T09:54:37.137Z,2.00
2022-10-31T09:55:37.083Z,2.90
2022-10-31T09:56:37.043Z,4.80
2022-10-31T09:57:37.136Z,2.80
2022-10-31T09:58:38.980Z,2.70
2022-10-31T09:59:36.996Z,2.90
2022-10-31T10:00:36.951Z,2.50
2022-10-31T10:01:37.044Z,2.50
2022-10-31T10:02:36.924Z,2.80
2022-10-31T10:03:36.898Z,2.80
2022-10-31T10:04:37.012Z,2.50
2022-10-31T10:05:36.905Z,2.40
2022-10-31T10:06:36.893Z,2.60
2022-10-31T10:07:36.915Z,2.70
2022-10-31T10:08:36.849Z,2.50
2022-10-31T10:09:36.850Z,2.40
2022-10-31T10:10:36.919Z,2.50
2022-10-31T10:11:36.969Z,2.70
2022-10-31T10:12:36.883Z,2.60
2022-10-31T10:13:36.922Z,2.70
2022-10-31T10:14:36.853Z,2.80
2022-10-31T10:15:36.850Z,2.80
2022-10-31T10:16:36.811Z,2.50
2022-10-31T10:17:36.938Z,2.30
2022-10-31T10:18:36.757Z,2.40
2022-10-31T10:19:37.047Z,2.80
2022-10-31T10:20:36.737Z,2.80
2022-10-31T10:21:36.763Z,2.30
2022-10-31T10:22:36.738Z,2.40
2022-10-31T10:23:36.907Z,2.60
2022-10-31T10:24:36.712Z,2.60
2022-10-31T10:25:36.747Z,2.30
2022-10-31T10:26:36.700Z,2.90
2022-10-31T10:27:36.678Z,2.50
2022-10-31T10:28:36.755Z,2.80
2022-10-31T10:29:36.663Z,2.90
2022-10-31T10:30:36.653Z,2.80
2022-10-31T10:31:36.675Z,3.20
2022-10-31T10:32:36.646Z,2.90
2022-10-31T10:33:36.598Z,3.50
2022-10-31T10:34:36.631Z,3.60
2022-10-31T10:35:37.531Z,3.80
2022-10-31T10:36:36.749Z,3.70
2022-10-31T10:37:37.639Z,4.60
2022-10-31T10:38:36.662Z,4.00
2022-10-31T10:39:37.077Z,3.60
2022-10-31T10:40:36.620Z,4.10
2022-10-31T10:41:36.572Z,4.10
2022-10-31T10:42:37.069Z,4.40
2022-10-31T10:43:36.635Z,4.00
2022-10-31T10:44:36.571Z,4.40
2022-10-31T10:45:36.540Z,4.10
2022-10-31T10:46:36.560Z,4.60
2022-10-31T10:47:36.475Z,3.90
2022-10-31T10:48:36.448Z,3.70
2022-10-31T10:49:36.505Z,4.30
2022-10-31T10:50:36.574Z,4.30
2022-10-31T10:52:43.413Z,3.80
2022-10-31T10:53:36.508Z,3.90
2022-10-31T10:54:36.477Z,3.80
2022-10-31T10:55:36.378Z,3.70
2022-10-31T10:56:36.401Z,3.80
2022-10-31T10:57:36.408Z,4.00
2022-10-31T10:58:36.388Z,3.80
2022-10-31T10:59:36.461Z,3.60
2022-10-31T11:00:36.650Z,4.30
2022-10-31T11:01:36.977Z,4.00
2022-10-31T11:02:36.358Z,4.20
2022-10-31T11:03:36.337Z,4.00
2022-10-31T11:04:36.298Z,3.90
2022-10-31T11:05:36.312Z,4.60
2022-10-31T11:06:36.394Z,4.40
2022-10-31T11:07:36.438Z,4.60
2022-10-31T11:08:36.277Z,4.70
2022-10-31T11:09:36.315Z,4.90
2022-10-31T11:10:36.259Z,4.80
2022-10-31T11:11:36.259Z,5.80
2022-10-31T11:12:36.322Z,5.30
2022-10-31T11:13:36.346Z,4.80
2022-10-31T11:14:36.201Z,5.40
2022-10-31T11:15:36.238Z,5.60
2022-10-31T11:16:40.787Z,4.90
2022-10-31T11:17:36.247Z,4.90
2022-10-31T11:18:36.240Z,4.80
2022-10-31T11:19:36.215Z,5.30
2022-10-31T11:20:36.291Z,5.20
2022-10-31T11:21:36.302Z,4.90
2022-10-31T11:22:36.149Z,5.10
2022-10-31T11:23:36.091Z,4.40
2022-10-31T11:24:36.218Z,4.70
2022-10-31T11:25:36.078Z,4.80
2022-10-31T11:26:36.196Z,4.50
2022-10-31T11:27:36.134Z,5.10
2022-10-31T11:28:36.322Z,5.10
2022-10-31T11:29:36.309Z,4.70
2022-10-31T11:30:36.179Z,4.90
2022-10-31T11:31:36.096Z,4.80
2022-10-31T11:32:36.151Z,4.70
2022-10-31T11:33:36.438Z,4.90
2022-10-31T11:34:36.186Z,5.00
2022-10-31T11:36:36.200Z,5.40
2022-10-31T11:37:36.059Z,5.00
2022-10-31T11:38:36.068Z,5.00
2022-10-31T11:39:36.076Z,4.00
2022-10-31T11:40:35.958Z,4.80
2022-10-31T11:41:36.253Z,4.70
2022-10-31T11:42:36.177Z,4.50
2022-10-31T11:43:36.041Z,4.90
2022-10-31T11:44:36.292Z,4.70
2022-10-31T11:45:36.260Z,5.00
2022-10-31T11:46:35.971Z,4.10
2022-10-31T11:47:35.966Z,4.30
2022-10-31T11:48:36.209Z,4.80
2022-10-31T11:49:35.993Z,4.60
2022-10-31T11:50:35.912Z,4.80
2022-10-31T11:51:35.830Z,4.10
2022-10-31T11:52:35.966Z,4.00
2022-10-31T11:53:35.894Z,4.50
2022-10-31T11:54:35.890Z,4.20
2022-10-31T11:55:35.890Z,4.40
2022-10-31T11:56:37.160Z,4.80
2022-10-31T11:57:35.771Z,4.50
2022-10-31T11:58:35.783Z,4.40
2022-10-31T11:59:35.876Z,4.20
2022-10-31T12:00:37.686Z,5.20
2022-10-31T12:01:37.748Z,4.20
2022-10-31T12:02:35.812Z,4.00
2022-10-31T12:03:35.749Z,4.30
2022-10-31T12:04:35.821Z,4.80
2022-10-31T12:05:35.740Z,4.60
2022-10-31T12:06:35.731Z,4.50
2022-10-31T12:07:36.450Z,4.40
2022-10-31T12:08:35.684Z,4.50
2022-10-31T12:09:35.747Z,4.80
2022-10-31T12:10:36.855Z,4.70
2022-10-31T12:11:35.807Z,4.20
2022-10-31T12:12:35.649Z,4.30
2022-10-31T12:13:35.775Z,4.60
2022-10-31T12:14:35.661Z,4.70
2022-10-31T12:15:35.637Z,4.70
2022-10-31T12:16:35.702Z,4.50
2022-10-31T12:17:35.801Z,4.90
2022-10-31T12:18:35.670Z,4.80
2022-10-31T12:19:35.551Z,4.60
2022-10-31T12:20:35.578Z,4.50
2022-10-31T12:21:35.585Z,4.40
2022-10-31T12:22:35.618Z,4.70
2022-10-31T12:23:35.657Z,4.80
2022-10-31T12:24:35.588Z,5.20
2022-10-31T12:25:35.504Z,4.70
2022-10-31T12:26:35.695Z,4.40
2022-10-31T12:27:35.513Z,4.90
2022-10-31T12:28:35.615Z,4.50
2022-10-31T12:29:35.534Z,4.80
2022-10-31T12:30:35.494Z,4.60
2022-10-31T12:31:35.565Z,4.10
2022-10-31T12:32:35.445Z,4.90
2022-10-31T12:33:35.420Z,4.90
2022-10-31T12:34:35.401Z,4.50
2022-10-31T12:35:35.455Z,4.50
2022-10-31T12:36:35.388Z,3.90
2022-10-31T12:37:35.420Z,4.80
2022-10-31T12:38:35.386Z,3.80
2022-10-31T12:39:35.395Z,5.10
2022-10-31T12:40:35.350Z,4.80
2022-10-31T12:41:35.360Z,4.90
2022-10-31T12:42:35.414Z,5.10
2022-10-31T12:43:35.321Z,4.70
2022-10-31T12:44:35.321Z,5.10
2022-10-31T12:45:35.309Z,4.80
2022-10-31T12:46:35.431Z,4.30
2022-10-31T12:47:35.473Z,4.90
2022-10-31T12:48:35.282Z,4.60
2022-10-31T12:49:35.574Z,4.60
2022-10-31T12:50:36.116Z,4.40
2022-10-31T12:51:35.383Z,4.60
2022-10-31T12:52:35.269Z,5.00
2022-10-31T12:53:35.220Z,4.80
2022-10-31T12:54:35.206Z,4.50
2022-10-31T12:55:35.283Z,4.90
2022-10-31T12:56:35.189Z,4.50
2022-10-31T12:57:35.175Z,4.80
2022-10-31T12:58:35.204Z,4.60
2022-10-31T12:59:35.160Z,4.50
2022-10-31T13:00:35.161Z,5.20
2022-10-31T13:01:35.328Z,5.30
2022-10-31T13:02:35.639Z,5.00
2022-10-31T13:03:35.225Z,4.70
2022-10-31T13:04:35.158Z,4.50
2022-10-31T13:05:35.115Z,4.40
2022-10-31T13:06:35.237Z,4.70
2022-10-31T13:07:35.076Z,4.50
2022-10-31T13:08:35.118Z,4.30
2022-10-31T13:09:35.090Z,5.10
2022-10-31T13:10:35.087Z,4.80
2022-10-31T13:11:35.074Z,4.80
2022-10-31T13:12:37.468Z,5.60
2022-10-31T13:13:35.015Z,5.60
2022-10-31T13:14:35.176Z,5.10
2022-10-31T13:15:34.989Z,5.20
2022-10-31T13:16:35.170Z,5.70
2022-10-31T13:17:35.063Z,5.60
2022-10-31T13:18:34.959Z,5.90
2022-10-31T13:19:34.955Z,6.20
2022-10-31T13:20:34.945Z,5.60
2022-10-31T13:21:34.939Z,6.00